Time;durP1;ratioP1;P1;durP2;ratioP2;P2;SDS_P1;SDS_P2;PMS_P1;PMS_P2;Temp;Humidity;BMP_temperature;BMP_pressure;BME280_temperature;BME280_humidity;BME280_pressure;Samples;Min_cycle;Max_cycle;Signal;HPM_P1;HPM_P2
2022/08/13 00:01:26;;;;;;;;;;;;;;;22.89;33.82;100561.47;4979411;28;6800;-77
2022/08/13 00:03:55;;;;;;;;;;;;;;;22.95;33.42;100563.19;4972035;28;7331;-76
2022/08/13 00:06:58;;;;;;;;;;;;;;;23.04;33.26;100552.72;5008847;28;7109;-76
2022/08/13 00:09:14;;;;;;;;;;;;;;;23.15;33.17;100553.59;4982693;28;6828;-76
2022/08/13 00:14:33;;;;;;;;;;;;;;;23.37;32.53;100563.16;5003892;28;6796;-76
2022/08/13 00:17:00;;;;;;;;;;;;;;;23.49;32.37;100557.91;4976445;28;6800;-76
2022/08/13 00:19:26;;;;;;;;;;;;;;;23.60;32.22;100552.63;4978046;28;7186;-76
2022/08/13 00:21:59;;;;;;;;;;;;;;;23.73;32.07;100553.47;4980155;28;7219;-76
2022/08/13 00:24:29;;;;;;;;;;;;;;;23.82;31.68;100557.78;5010990;28;6808;-76
2022/08/13 00:26:59;;;;;;;;;;;;;;;23.88;31.85;100555.13;5005779;28;6938;-77
2022/08/13 00:29:26;;;;;;;;;;;;;;;23.93;31.91;100553.34;5005736;28;6807;-76
2022/08/13 00:31:52;;;;;;;;;;;;;;;23.98;31.58;100561.19;5002937;28;6880;-76
2022/08/13 00:34:18;;;;;;;;;;;;;;;24.01;31.14;100563.81;4981193;28;7151;-76
2022/08/13 00:36:45;;;;;;;;;;;;;;;24.03;31.27;100556.81;4974333;28;7341;-76
2022/08/13 00:39:11;;;;;;;;;;;;;;;24.08;31.36;100556.81;5012259;28;6815;-76
2022/08/13 00:41:41;;;;;;;;;;;;;;;24.10;30.87;100550.69;4999401;28;6847;-76
2022/08/13 00:44:13;;;;;;;;;;;;;;;24.14;30.99;100554.16;5005325;28;6968;-77
2022/08/13 00:46:41;;;;;;;;;;;;;;;24.16;31.55;100556.75;4977065;28;6800;-77
2022/08/13 00:49:11;;;;;;;;;;;;;;;24.15;31.09;100550.69;5008042;28;6940;-77
2022/08/13 00:51:39;;;;;;;;;;;;;;;24.15;30.80;100555.91;4979949;28;7311;-76
2022/08/13 00:54:13;;;;;;;;;;;;;;;24.15;31.25;100545.44;5010385;28;6780;-76
2022/08/13 00:56:39;;;;;;;;;;;;;;;24.13;31.54;100549.78;4993558;28;7470;-76
2022/08/13 00:59:11;;;;;;;;;;;;;;;24.10;31.26;100544.59;4972597;28;7187;-76
2022/08/13 01:01:46;;;;;;;;;;;;;;;24.09;31.19;100550.69;4972059;28;7062;-76
2022/08/13 01:04:12;;;;;;;;;;;;;;;24.09;31.49;100545.47;4997251;28;6984;-76
2022/08/13 01:06:39;;;;;;;;;;;;;;;24.07;31.27;100545.47;5004016;28;8096;-76
2022/08/13 01:09:08;;;;;;;;;;;;;;;24.04;31.05;100540.25;4976300;28;6784;-76
2022/08/13 01:11:38;;;;;;;;;;;;;;;24.02;31.14;100541.97;5007127;28;6967;-76
2022/08/13 01:14:07;;;;;;;;;;;;;;;24.00;31.21;100541.97;4989897;28;7597;-76
2022/08/13 01:16:36;;;;;;;;;;;;;;;24.00;31.35;100541.97;5007134;28;8709;-76
2022/08/13 01:19:09;;;;;;;;;;;;;;;23.97;31.29;100541.13;5005729;28;6808;-77
2022/08/13 01:21:44;;;;;;;;;;;;;;;23.93;31.28;100545.50;4974321;28;6880;-76
2022/08/13 01:24:12;;;;;;;;;;;;;;;23.91;31.06;100535.94;4992447;28;7002;-76
2022/08/13 01:26:39;;;;;;;;;;;;;;;23.87;31.57;100548.16;4979073;28;6962;-76
2022/08/13 01:29:07;;;;;;;;;;;;;;;23.84;31.53;100546.44;5009025;28;6961;-77
2022/08/13 01:31:34;;;;;;;;;;;;;;;23.79;31.45;100542.94;4956614;28;7284;-76
2022/08/13 01:34:03;;;;;;;;;;;;;;;23.74;31.81;100539.50;5005802;28;6860;-77
2022/08/13 01:36:30;;;;;;;;;;;;;;;23.69;31.54;100542.13;4987844;28;6999;-76
2022/08/13 01:38:57;;;;;;;;;;;;;;;23.67;31.50;100548.25;4957531;28;7475;-76
2022/08/13 01:41:26;;;;;;;;;;;;;;;23.63;31.35;100542.16;5005928;28;7107;-76
2022/08/13 01:43:53;;;;;;;;;;;;;;;23.61;31.45;100543.03;4979186;28;7729;-76
2022/08/13 01:46:20;;;;;;;;;;;;;;;23.57;32.06;100544.81;4972017;28;7161;-76
2022/08/13 01:51:33;;;;;;;;;;;;;;;23.51;31.53;100544.81;4975263;28;7309;-76
2022/08/13 01:54:00;;;;;;;;;;;;;;;23.47;31.90;100543.97;4978116;28;6800;-77
2022/08/13 01:56:31;;;;;;;;;;;;;;;23.41;31.84;100547.47;5006384;28;6800;-76
2022/08/13 01:59:02;;;;;;;;;;;;;;;23.35;32.37;100555.31;4972613;28;7000;-77
2022/08/13 02:01:30;;;;;;;;;;;;;;;23.30;32.25;100549.25;4998339;28;7016;-76
2022/08/13 02:03:57;;;;;;;;;;;;;;;23.24;32.31;100554.44;5008621;28;7136;-76
2022/08/13 02:06:29;;;;;;;;;;;;;;;23.15;32.60;100548.34;4971038;28;6862;-76
2022/08/13 02:09:00;;;;;;;;;;;;;;;23.07;32.77;100544.88;5018575;28;8700;-76
2022/08/13 02:11:34;;;;;;;;;;;;;;;22.99;32.89;100541.44;5007728;28;6967;-76
2022/08/13 02:14:03;;;;;;;;;;;;;;;22.93;33.35;100546.66;4975203;28;6934;-76
2022/08/13 02:16:36;;;;;;;;;;;;;;;22.81;33.60;100545.78;5022657;28;7766;-76
2022/08/13 02:19:07;;;;;;;;;;;;;;;22.71;33.37;100549.28;4972195;28;7170;-76
2022/08/13 02:21:39;;;;;;;;;;;;;;;22.58;33.92;100548.41;4961682;28;8619;-76
2022/08/13 02:24:13;;;;;;;;;;;;;;;22.45;33.97;100547.47;5010139;28;6973;-76
2022/08/13 02:26:44;;;;;;;;;;;;;;;22.33;34.46;100546.59;5005557;28;7019;-76
2022/08/13 02:29:12;;;;;;;;;;;;;;;22.25;34.80;100553.53;5006648;28;7228;-77
2022/08/13 02:31:42;;;;;;;;;;;;;;;22.13;34.91;100541.31;4918241;28;1068974;-77
2022/08/13 02:34:09;;;;;;;;;;;;;;;22.03;34.72;100553.50;4983995;28;6978;-77
2022/08/13 02:36:40;;;;;;;;;;;;;;;21.95;34.67;100550.00;4974617;28;7178;-77
2022/08/13 02:39:08;;;;;;;;;;;;;;;21.84;34.90;100554.31;5005362;28;7015;-77
2022/08/13 02:41:43;;;;;;;;;;;;;;;21.72;35.29;100547.28;4978840;28;6808;-77
2022/08/13 02:44:13;;;;;;;;;;;;;;;21.62;35.36;100548.94;4971592;28;7170;-77
2022/08/13 02:46:49;;;;;;;;;;;;;;;21.53;35.96;100543.69;4975083;28;7220;-77
2022/08/13 02:49:17;;;;;;;;;;;;;;;21.42;36.34;100552.31;4976868;28;6824;-76
2022/08/13 02:51:45;;;;;;;;;;;;;;;21.35;36.48;100553.16;5005924;28;7258;-75
2022/08/13 02:54:11;;;;;;;;;;;;;;;21.27;36.68;100552.25;5021378;28;6980;-74
2022/08/13 02:56:37;;;;;;;;;;;;;;;21.20;36.94;100552.19;5022312;28;7644;-74
2022/08/13 02:59:10;;;;;;;;;;;;;;;21.15;36.11;100558.25;5005723;28;6840;-74
2022/08/13 03:01:39;;;;;;;;;;;;;;;21.11;36.68;100554.75;4956639;28;7234;-75
2022/08/13 03:04:08;;;;;;;;;;;;;;;21.10;36.83;100555.59;4977920;28;9342;-75
2022/08/13 03:06:34;;;;;;;;;;;;;;;21.08;37.06;100549.50;4974066;28;7246;-75
2022/08/13 03:09:02;;;;;;;;;;;;;;;21.06;36.81;100552.09;4989855;28;6977;-74
2022/08/13 03:11:36;;;;;;;;;;;;;;;21.07;37.09;100550.38;5007112;28;6792;-75
2022/08/13 03:14:07;;;;;;;;;;;;;;;21.11;36.84;100554.75;4995053;28;6995;-75
2022/08/13 03:16:34;;;;;;;;;;;;;;;21.15;36.69;100555.63;5005743;28;6983;-75
2022/08/13 03:19:00;;;;;;;;;;;;;;;21.18;37.01;100551.31;4975586;28;6788;-75
2022/08/13 03:21:32;;;;;;;;;;;;;;;21.23;36.80;100556.56;5004111;28;7178;-75
2022/08/13 03:23:59;;;;;;;;;;;;;;;21.25;36.61;100551.38;4977588;28;6868;-75
2022/08/13 03:26:25;;;;;;;;;;;;;;;21.25;37.00;100551.38;5007514;28;6803;-75
2022/08/13 03:28:51;;;;;;;;;;;;;;;21.20;37.18;100559.16;5004573;28;6851;-75
2022/08/13 03:31:24;;;;;;;;;;;;;;;21.13;37.19;100554.75;5007375;28;6784;-75
2022/08/13 03:33:52;;;;;;;;;;;;;;;21.05;37.39;100552.06;4996742;28;8550;-75
2022/08/13 03:36:18;;;;;;;;;;;;;;;21.00;37.22;100553.78;5010391;28;6828;-75
2022/08/13 03:38:44;;;;;;;;;;;;;;;20.93;37.23;100553.75;5023465;28;8176;-75
2022/08/13 03:41:14;;;;;;;;;;;;;;;20.89;37.23;100557.19;4993703;28;7311;-75
2022/08/13 03:43:47;;;;;;;;;;;;;;;20.86;37.56;100554.56;4990258;28;7011;-75
2022/08/13 03:46:20;;;;;;;;;;;;;;;20.82;37.57;100558.00;5004093;28;6812;-75
2022/08/13 03:48:48;;;;;;;;;;;;;;;20.76;38.20;100558.78;4981188;28;7091;-75
2022/08/13 03:51:19;;;;;;;;;;;;;;;20.72;37.87;100558.75;4980988;28;6946;-75
2022/08/13 03:53:45;;;;;;;;;;;;;;;20.66;37.95;100556.97;4999395;28;8671;-75
2022/08/13 03:56:14;;;;;;;;;;;;;;;20.61;38.10;100561.25;5000258;28;7049;-75
2022/08/13 03:58:40;;;;;;;;;;;;;;;20.56;37.94;100566.41;4973669;28;6949;-75
2022/08/13 04:01:06;;;;;;;;;;;;;;;20.50;38.26;100563.78;4980348;28;6961;-75
2022/08/13 04:03:41;;;;;;;;;;;;;;;20.43;37.99;100561.97;4995923;28;6971;-75
2022/08/13 04:06:16;;;;;;;;;;;;;;;20.38;38.54;100559.31;4975700;28;6884;-75
2022/08/13 04:08:44;;;;;;;;;;;;;;;20.33;38.71;100564.47;5009429;28;6796;-75
2022/08/13 04:11:14;;;;;;;;;;;;;;;20.31;38.59;100568.78;4977580;28;7221;-75
2022/08/13 04:13:41;;;;;;;;;;;;;;;20.30;38.82;100574.84;5007927;28;9232;-75
2022/08/13 04:16:10;;;;;;;;;;;;;;;20.26;38.58;100567.84;4974258;28;8403;-75
2022/08/13 04:18:39;;;;;;;;;;;;;;;20.24;38.99;100574.78;4978069;28;7038;-75
2022/08/13 04:21:11;;;;;;;;;;;;;;;20.20;39.15;100575.59;4973533;28;7004;-75
2022/08/13 04:23:41;;;;;;;;;;;;;;;20.17;38.80;100576.44;5006488;28;6856;-75
2022/08/13 04:26:09;;;;;;;;;;;;;;;20.12;39.27;100565.97;5027760;28;8979;-74
2022/08/13 04:28:38;;;;;;;;;;;;;;;20.10;39.62;100570.31;5004173;28;7249;-75
2022/08/13 04:31:05;;;;;;;;;;;;;;;20.07;39.66;100575.44;4965764;28;7004;-75
2022/08/13 04:33:31;;;;;;;;;;;;;;;20.05;39.75;100577.16;4974790;28;7343;-75
2022/08/13 04:35:57;;;;;;;;;;;;;;;20.02;40.24;100582.34;4967775;28;6800;-75
2022/08/13 04:38:23;;;;;;;;;;;;;;;20.00;39.63;100577.97;5007492;28;6859;-73
2022/08/13 04:40:51;;;;;;;;;;;;;;;19.96;40.05;100580.53;5007366;28;7310;-73
2022/08/13 04:43:17;;;;;;;;;;;;;;;19.94;40.41;100581.38;5006492;28;6800;-73
2022/08/13 04:45:43;;;;;;;;;;;;;;;19.94;39.96;100583.97;5006219;28;6795;-73
2022/08/13 04:48:13;;;;;;;;;;;;;;;19.94;40.27;100581.38;4975583;28;7650;-73
2022/08/13 04:50:41;;;;;;;;;;;;;;;19.94;40.42;100576.16;4974451;28;8108;-73
2022/08/13 04:53:19;;;;;;;;;;;;;;;19.97;40.61;100579.69;5003914;28;6989;-73
2022/08/13 04:55:46;;;;;;;;;;;;;;;20.01;40.80;100572.78;4994136;28;7019;-72
2022/08/13 04:58:11;;;;;;;;;;;;;;;20.06;40.95;100584.13;5004955;28;6804;-72
2022/08/13 05:00:37;;;;;;;;;;;;;;;20.11;41.19;100582.44;5003487;28;6967;-72
2022/08/13 05:03:17;;;;;;;;;;;;;;;20.17;40.95;100588.56;5004184;28;6939;-73
2022/08/13 05:05:47;;;;;;;;;;;;;;;20.29;40.94;100585.22;4972114;28;6990;-73
2022/08/13 05:08:15;;;;;;;;;;;;;;;20.51;41.63;100575.94;4976483;28;6796;-73
2022/08/13 05:10:43;;;;;;;;;;;;;;;20.79;41.11;100582.25;4975400;28;6820;-73
2022/08/13 05:13:31;;;;;;;;;;;;;;;21.14;41.12;100578.19;5006061;28;7009;-74
2022/08/13 05:16:00;;;;;;;;;;;;;;;21.47;41.16;100581.91;4986623;28;7625;-74
2022/08/13 05:18:30;;;;;;;;;;;;;;;21.87;40.82;100583.00;5003635;28;6875;-73
2022/08/13 05:21:01;;;;;;;;;;;;;;;22.21;40.10;100583.09;5005652;28;6875;-74
2022/08/13 05:23:27;;;;;;;;;;;;;;;22.50;39.42;100586.69;4976297;28;6816;-74
2022/08/13 05:25:53;;;;;;;;;;;;;;;22.70;39.02;100589.34;5001284;28;6999;-74
2022/08/13 05:28:20;;;;;;;;;;;;;;;22.92;39.13;100591.94;4994815;28;7213;-74
2022/08/13 05:30:47;;;;;;;;;;;;;;;23.12;38.99;100587.56;5008948;28;7058;-73
2022/08/13 05:33:14;;;;;;;;;;;;;;;23.34;38.60;100587.56;4982069;28;6784;-73
2022/08/13 05:35:42;;;;;;;;;;;;;;;23.53;38.39;100591.03;5006263;28;6864;-73
2022/08/13 05:38:09;;;;;;;;;;;;;;;23.72;38.35;100591.81;4976671;28;8800;-73
2022/08/13 05:40:35;;;;;;;;;;;;;;;23.89;37.95;100590.91;4975200;28;6824;-73
2022/08/13 05:43:03;;;;;;;;;;;;;;;24.05;37.44;100590.88;5000968;28;6864;-73
2022/08/13 05:45:29;;;;;;;;;;;;;;;24.19;36.56;100588.16;4964256;28;7119;-73
2022/08/13 05:47:55;;;;;;;;;;;;;;;24.30;36.36;100593.34;4971875;28;6788;-73
2022/08/13 05:50:21;;;;;;;;;;;;;;;24.33;35.62;100596.81;5003832;28;6985;-73
2022/08/13 05:52:46;;;;;;;;;;;;;;;24.35;36.21;100594.19;5005601;28;6861;-73
2022/08/13 05:55:14;;;;;;;;;;;;;;;24.34;35.31;100598.56;4977366;28;6768;-73
2022/08/13 05:57:40;;;;;;;;;;;;;;;24.33;35.66;100590.69;4972292;28;6967;-73
2022/08/13 06:05:37;;;;;;;;;;;;;;;24.26;36.08;100598.59;4975543;28;6940;-74
2022/08/13 06:08:07;;;;;;;;;;;;;;;24.26;35.83;100595.09;5009310;28;6776;-74
2022/08/13 06:10:33;;;;;;;;;;;;;;;24.25;36.29;100591.63;4994787;28;7218;-74
2022/08/13 06:12:59;;;;;;;;;;;;;;;24.26;35.66;100590.75;4977710;28;7868;-73
2022/08/13 06:15:26;;;;;;;;;;;;;;;24.26;35.69;100585.50;5006119;28;7180;-73
2022/08/13 06:17:52;;;;;;;;;;;;;;;24.30;35.78;100595.97;4976792;28;7263;-73
2022/08/13 06:20:22;;;;;;;;;;;;;;;24.32;36.36;100588.97;4978478;28;6788;-73
2022/08/13 06:22:48;;;;;;;;;;;;;;;24.36;35.66;100590.69;4980128;28;7035;-73
2022/08/13 06:25:17;;;;;;;;;;;;;;;24.39;35.78;100591.56;4983190;28;7423;-74
2022/08/13 06:27:43;;;;;;;;;;;;;;;24.44;36.17;100591.53;4981701;28;6788;-74
2022/08/13 06:30:18;;;;;;;;;;;;;;;24.50;36.24;100598.47;4976083;28;7683;-73
2022/08/13 06:32:44;;;;;;;;;;;;;;;24.58;35.89;100594.03;4961577;28;11385;-74
2022/08/13 06:35:10;;;;;;;;;;;;;;;24.66;35.82;100588.75;4995915;28;6982;-74
2022/08/13 06:37:41;;;;;;;;;;;;;;;24.73;35.62;100590.44;5003500;28;6783;-74
2022/08/13 06:40:11;;;;;;;;;;;;;;;24.81;35.43;100588.63;4973787;28;6788;-74
2022/08/13 06:42:40;;;;;;;;;;;;;;;24.92;35.57;100590.31;4989977;28;8198;-74
2022/08/13 06:45:07;;;;;;;;;;;;;;;25.01;35.69;100592.84;4999154;28;6800;-74
2022/08/13 06:47:33;;;;;;;;;;;;;;;25.09;35.23;100601.50;4969921;28;7528;-74
2022/08/13 06:50:00;;;;;;;;;;;;;;;25.21;35.14;100597.06;4972027;28;8607;-74
2022/08/13 06:52:27;;;;;;;;;;;;;;;25.31;34.82;100593.44;5004891;28;6791;-74
2022/08/13 06:54:55;;;;;;;;;;;;;;;25.40;35.16;100596.84;4971201;28;6804;-75
2022/08/13 06:57:22;;;;;;;;;;;;;;;25.50;34.82;100595.91;4969147;28;7011;-74
2022/08/13 06:59:57;;;;;;;;;;;;;;;25.59;34.57;100601.06;5001988;28;7211;-74
2022/08/13 07:02:24;;;;;;;;;;;;;;;25.69;34.29;100593.94;4999683;28;6992;-73
2022/08/13 07:04:54;;;;;;;;;;;;;;;25.78;34.78;100591.19;4968206;28;6964;-73
2022/08/13 07:07:20;;;;;;;;;;;;;;;25.87;34.17;100587.56;4993073;28;7287;-74
2022/08/13 07:09:48;;;;;;;;;;;;;;;25.97;34.19;100598.84;4992956;28;7042;-74
2022/08/13 07:12:13;;;;;;;;;;;;;;;26.07;34.08;100599.56;5006971;28;6796;-74
2022/08/13 07:14:44;;;;;;;;;;;;;;;26.17;33.55;100590.72;5005983;28;7180;-73
2022/08/13 07:17:11;;;;;;;;;;;;;;;26.26;33.65;100600.25;5004949;28;7264;-74
2022/08/13 07:19:37;;;;;;;;;;;;;;;26.38;33.47;100598.31;4981016;28;6814;-74
2022/08/13 07:22:06;;;;;;;;;;;;;;;26.50;33.22;100595.50;4975917;28;6800;-74
2022/08/13 07:24:32;;;;;;;;;;;;;;;26.64;32.82;100599.69;5000792;28;6964;-73
2022/08/13 07:27:07;;;;;;;;;;;;;;;26.75;32.51;100590.75;4981490;28;7285;-74
2022/08/13 07:29:36;;;;;;;;;;;;;;;26.89;32.85;100600.19;4993018;28;7340;-74
2022/08/13 07:32:04;;;;;;;;;;;;;;;27.00;32.81;100592.97;4997847;28;6971;-74
2022/08/13 07:34:33;;;;;;;;;;;;;;;27.14;32.67;100594.50;5010441;28;6784;-74
2022/08/13 07:37:00;;;;;;;;;;;;;;;27.27;32.49;100593.38;4966453;28;7233;-74
2022/08/13 07:39:26;;;;;;;;;;;;;;;27.40;32.57;100596.66;5006017;28;6848;-74
2022/08/13 07:41:55;;;;;;;;;;;;;;;27.55;32.37;100603.41;4974576;28;6863;-74
2022/08/13 07:44:23;;;;;;;;;;;;;;;27.67;32.60;100599.69;4974145;28;6939;-74
2022/08/13 07:46:51;;;;;;;;;;;;;;;27.83;32.26;100599.34;4973528;28;6935;-74
2022/08/13 07:49:20;;;;;;;;;;;;;;;27.99;31.64;100599.88;4958614;28;8176;-74
2022/08/13 07:51:48;;;;;;;;;;;;;;;28.13;31.45;100605.72;5005584;28;6868;-73
2022/08/13 07:54:15;;;;;;;;;;;;;;;28.28;31.00;100595.75;4996571;28;6876;-74
2022/08/13 07:56:47;;;;;;;;;;;;;;;28.43;31.13;100605.09;5010713;28;7261;-74
2022/08/13 07:59:18;;;;;;;;;;;;;;;28.59;30.99;100597.69;5006916;28;6824;-74
2022/08/13 08:01:52;;;;;;;;;;;;;;;28.75;30.67;100599.94;5006527;28;7262;-74
2022/08/13 08:04:21;;;;;;;;;;;;;;;28.91;30.42;100606.59;5006776;28;6816;-74
2022/08/13 08:06:48;;;;;;;;;;;;;;;29.06;29.76;100599.19;4969632;28;6808;-74
2022/08/13 08:09:17;;;;;;;;;;;;;;;29.21;29.73;100597.91;4982725;28;7154;-74
2022/08/13 08:14:30;;;;;;;;;;;;;;;29.50;29.74;100599.78;5001167;28;7747;-73
2022/08/13 08:17:01;;;;;;;;;;;;;;;29.65;28.69;100592.38;5004272;28;6950;-74
2022/08/13 08:19:28;;;;;;;;;;;;;;;29.80;29.34;100591.06;4984871;28;8072;-74
2022/08/13 08:22:04;;;;;;;;;;;;;;;29.96;29.45;100596.75;5011337;28;6852;-74
2022/08/13 08:24:32;;;;;;;;;;;;;;;30.13;28.32;100600.66;4987672;28;7114;-74
2022/08/13 08:27:11;;;;;;;;;;;;;;;30.27;28.49;100595.81;4978216;28;6841;-74
2022/08/13 08:29:40;;;;;;;;;;;;;;;30.39;28.15;100597.22;4978574;28;7149;-74
2022/08/13 08:32:10;;;;;;;;;;;;;;;30.51;27.83;100601.22;4975143;28;6796;-74
2022/08/13 08:34:44;;;;;;;;;;;;;;;30.63;27.37;100592.91;4982520;28;7154;-74
2022/08/13 08:42:52;;;;;;;;;;;;;;;31.01;26.58;100591.69;5007738;28;6811;-74
2022/08/13 08:45:20;;;;;;;;;;;;;;;31.14;26.98;100579.75;5011369;28;7522;-74
2022/08/13 08:47:48;;;;;;;;;;;;;;;31.30;26.35;100587.19;5004219;28;7299;-74
2022/08/13 08:50:16;;;;;;;;;;;;;;;31.42;26.58;100592.03;4970334;28;6797;-75
2022/08/13 08:55:35;;;;;;;;;;;;;;;31.82;26.29;100588.84;4999738;28;7611;-74
2022/08/13 08:58:04;;;;;;;;;;;;;;;32.07;25.96;100595.84;4978789;28;7678;-75
2022/08/13 09:00:33;;;;;;;;;;;;;;;32.35;25.70;100592.94;5007007;28;6796;-73
2022/08/13 09:03:00;;;;;;;;;;;;;;;32.69;25.38;100585.41;5004720;28;6983;-74
2022/08/13 09:05:26;;;;;;;;;;;;;;;33.06;24.46;100583.00;4972847;28;6844;-74
2022/08/13 09:07:53;;;;;;;;;;;;;;;33.54;23.71;100580.03;4970046;28;7441;-74
2022/08/13 09:10:22;;;;;;;;;;;;;;;34.12;23.62;100572.94;4960445;28;6991;-74
2022/08/13 09:12:50;;;;;;;;;;;;;;;34.80;23.06;100566.94;4987162;28;7196;-74
2022/08/13 09:15:22;;;;;;;;;;;;;;;35.52;21.98;100572.06;4999590;28;7057;-74
2022/08/13 09:17:53;;;;;;;;;;;;;;;36.28;21.69;100559.03;5004621;28;7613;-74
2022/08/13 09:20:24;;;;;;;;;;;;;;;37.04;20.48;100559.94;4976297;28;6788;-75
2022/08/13 09:23:07;;;;;;;;;;;;;;;37.75;20.18;100551.97;4991458;28;6988;-74
2022/08/13 09:25:46;;;;;;;;;;;;;;;38.46;19.75;100553.66;5001058;28;8693;-74
2022/08/13 09:28:12;;;;;;;;;;;;;;;39.17;19.07;100554.16;4992874;28;6824;-74
2022/08/13 09:30:41;;;;;;;;;;;;;;;39.77;18.65;100555.31;4975125;28;10001;-74
2022/08/13 09:33:09;;;;;;;;;;;;;;;40.28;18.01;100551.56;5003212;28;6807;-73
2022/08/13 09:35:35;;;;;;;;;;;;;;;40.67;17.52;100544.16;4976879;28;6815;-74
2022/08/13 09:38:06;;;;;;;;;;;;;;;41.07;17.23;100544.69;4976671;28;6933;-74
2022/08/13 09:40:44;;;;;;;;;;;;;;;41.46;16.97;100542.50;4983084;28;7477;-73
2022/08/13 09:43:19;;;;;;;;;;;;;;;41.69;16.59;100538.94;4993773;28;6816;-74
2022/08/13 09:45:45;;;;;;;;;;;;;;;41.96;16.40;100548.38;4999174;28;7042;-76
2022/08/13 09:48:10;;;;;;;;;;;;;;;42.28;15.82;100536.75;4975987;28;6817;-74
2022/08/13 09:50:36;;;;;;;;;;;;;;;42.55;15.47;100538.97;4970567;28;6780;-74
2022/08/13 09:53:03;;;;;;;;;;;;;;;42.64;15.13;100539.16;5002728;28;6807;-74
2022/08/13 09:55:29;;;;;;;;;;;;;;;42.73;15.27;100539.22;4986126;28;7068;-75
2022/08/13 09:57:59;;;;;;;;;;;;;;;42.88;15.29;100539.72;5006816;28;7243;-75
2022/08/13 10:00:31;;;;;;;;;;;;;;;43.01;14.77;100534.13;5003178;28;6886;-75
2022/08/13 10:03:00;;;;;;;;;;;;;;;43.08;14.90;100534.44;4973819;28;6804;-76
2022/08/13 10:05:32;;;;;;;;;;;;;;;43.30;14.82;100535.19;5001385;28;6811;-75
2022/08/13 10:08:00;;;;;;;;;;;;;;;43.61;14.58;100531.63;5011939;28;7113;-76
2022/08/13 10:10:26;;;;;;;;;;;;;;;43.94;14.23;100533.09;4981286;28;6966;-76
2022/08/13 10:12:52;;;;;;;;;;;;;;;44.23;14.05;100528.69;5012832;28;6800;-76
2022/08/13 10:15:18;;;;;;;;;;;;;;;44.42;13.82;100527.81;5032971;28;6964;-75
2022/08/13 10:17:56;;;;;;;;;;;;;;;44.52;13.65;100530.47;5015185;28;6869;-75
2022/08/13 10:20:33;;;;;;;;;;;;;;;44.46;13.69;100534.63;4983088;28;6799;-75
2022/08/13 10:23:03;;;;;;;;;;;;;;;44.38;13.38;100523.69;4977593;28;7742;-76
2022/08/13 10:25:29;;;;;;;;;;;;;;;44.34;13.56;100531.25;4983330;28;6984;-75
2022/08/13 10:27:56;;;;;;;;;;;;;;;44.29;13.03;100524.59;4983816;28;6788;-75
2022/08/13 10:30:26;;;;;;;;;;;;;;;44.31;13.39;100515.31;5015329;28;6807;-75
2022/08/13 10:32:55;;;;;;;;;;;;;;;44.42;13.36;100525.13;4993247;28;6982;-76
2022/08/13 10:35:24;;;;;;;;;;;;;;;44.51;13.01;100518.84;4983067;28;6991;-75
2022/08/13 10:37:56;;;;;;;;;;;;;;;44.29;12.50;100517.31;5014295;28;7722;-75
2022/08/13 10:40:24;;;;;;;;;;;;;;;43.94;13.08;100513.34;4980638;28;6969;-75
2022/08/13 10:42:52;;;;;;;;;;;;;;;43.86;13.16;100513.22;4978145;28;7011;-76
2022/08/13 10:45:20;;;;;;;;;;;;;;;43.89;13.55;100510.22;5014852;28;7924;-75
2022/08/13 10:47:49;;;;;;;;;;;;;;;43.96;13.35;100505.97;4984993;28;7130;-76
2022/08/13 10:50:19;;;;;;;;;;;;;;;44.03;13.18;100503.53;4995680;28;7122;-76
2022/08/13 10:52:45;;;;;;;;;;;;;;;44.00;13.04;100512.78;5013136;28;6876;-75
2022/08/13 10:55:13;;;;;;;;;;;;;;;43.81;12.87;100509.09;5019634;28;6776;-75
2022/08/13 10:57:45;;;;;;;;;;;;;;;43.74;13.26;100510.59;4968960;28;7066;-75
2022/08/13 11:00:16;;;;;;;;;;;;;;;43.83;13.42;100504.38;4981436;28;7025;-75
2022/08/13 11:02:42;;;;;;;;;;;;;;;43.95;12.92;100506.97;4996149;28;12804;-75
2022/08/13 11:05:11;;;;;;;;;;;;;;;44.01;12.93;100498.28;5014357;28;7159;-75
2022/08/13 11:07:39;;;;;;;;;;;;;;;43.94;12.99;100497.13;5016487;28;7071;-75
2022/08/13 11:10:08;;;;;;;;;;;;;;;43.81;13.01;100498.28;5017470;28;7166;-75
2022/08/13 11:12:35;;;;;;;;;;;;;;;43.87;13.30;100496.03;5016603;28;7232;-76
2022/08/13 11:15:01;;;;;;;;;;;;;;;44.15;12.99;100493.44;4989647;28;6788;-75
2022/08/13 11:17:27;;;;;;;;;;;;;;;44.34;12.95;100488.03;4981822;28;7169;-75
2022/08/13 11:19:54;;;;;;;;;;;;;;;44.39;12.74;100482.19;4986330;28;6960;-76
2022/08/13 11:22:23;;;;;;;;;;;;;;;44.37;12.64;100476.94;4984304;28;6951;-75
2022/08/13 11:24:49;;;;;;;;;;;;;;;44.39;12.51;100477.63;5016094;28;6846;-75
2022/08/13 11:27:16;;;;;;;;;;;;;;;44.36;12.41;100472.53;5016120;28;6948;-74
2022/08/13 11:29:42;;;;;;;;;;;;;;;44.39;12.22;100476.81;4982073;28;6788;-75
2022/08/13 11:32:08;;;;;;;;;;;;;;;44.53;12.52;100472.78;4982166;28;6772;-75
2022/08/13 11:34:33;;;;;;;;;;;;;;;44.66;12.53;100464.34;4983735;28;7225;-75
2022/08/13 11:37:00;;;;;;;;;;;;;;;44.79;12.41;100469.41;4996432;28;6996;-75
2022/08/13 11:39:25;;;;;;;;;;;;;;;44.94;12.34;100462.53;5017889;28;7003;-75
2022/08/13 11:41:54;;;;;;;;;;;;;;;45.19;12.23;100470.91;4986236;28;7132;-74
2022/08/13 11:44:19;;;;;;;;;;;;;;;45.28;11.95;100462.91;5014118;28;6791;-75
2022/08/13 11:46:46;;;;;;;;;;;;;;;45.33;11.93;100466.00;4984725;28;6788;-75
2022/08/13 11:49:12;;;;;;;;;;;;;;;45.49;12.02;100471.63;4986769;28;7193;-75
2022/08/13 11:51:38;;;;;;;;;;;;;;;45.66;11.78;100471.75;5016375;28;6764;-75
2022/08/13 11:54:04;;;;;;;;;;;;;;;45.70;11.63;100467.75;5014319;28;6851;-75
2022/08/13 11:56:30;;;;;;;;;;;;;;;45.82;11.61;100448.59;4978047;28;7198;-75
2022/08/13 11:58:55;;;;;;;;;;;;;;;45.86;11.56;100460.78;5015794;28;7074;-75
2022/08/13 12:01:22;;;;;;;;;;;;;;;45.95;11.51;100457.13;4994188;28;6965;-75
2022/08/13 12:03:48;;;;;;;;;;;;;;;46.13;11.48;100464.38;5015588;28;7861;-75
2022/08/13 12:06:14;;;;;;;;;;;;;;;46.31;11.58;100459.78;5012422;28;7098;-76
2022/08/13 12:08:40;;;;;;;;;;;;;;;46.62;11.63;100460.28;5015111;28;6964;-76
2022/08/13 12:11:06;;;;;;;;;;;;;;;46.96;11.29;100467.59;4986729;28;6776;-75
2022/08/13 12:13:31;;;;;;;;;;;;;;;47.08;10.66;100457.25;4978653;28;7224;-75
2022/08/13 12:15:57;;;;;;;;;;;;;;;46.72;10.48;100459.16;4983619;28;8011;-75
2022/08/13 12:18:23;;;;;;;;;;;;;;;46.12;10.64;100470.78;4986320;28;6819;-75
2022/08/13 12:20:48;;;;;;;;;;;;;;;45.73;10.93;100456.59;4982768;28;6784;-75
2022/08/13 12:23:15;;;;;;;;;;;;;;;45.65;11.11;100447.56;4986867;28;6776;-75
2022/08/13 12:25:41;;;;;;;;;;;;;;;45.75;11.33;100448.34;4979810;28;7137;-75
2022/08/13 12:28:24;;;;;;;;;;;;;;;45.92;11.23;100443.91;5015307;28;6804;-75
2022/08/13 12:30:53;;;;;;;;;;;;;;;46.03;11.81;100440.13;5027893;28;7253;-76
2022/08/13 12:33:20;;;;;;;;;;;;;;;46.23;11.47;100440.75;4982219;28;7342;-76
2022/08/13 12:35:46;;;;;;;;;;;;;;;46.41;11.07;100442.56;4986218;28;6796;-75
2022/08/13 12:38:14;;;;;;;;;;;;;;;46.29;10.68;100432.00;4997690;28;7082;-75
2022/08/13 12:40:43;;;;;;;;;;;;;;;46.12;11.17;100422.91;4983022;28;6830;-75
2022/08/13 12:43:09;;;;;;;;;;;;;;;46.09;10.85;100427.81;4986967;28;6804;-75
2022/08/13 12:45:37;;;;;;;;;;;;;;;46.01;10.78;100428.56;5012416;28;6784;-75
2022/08/13 12:48:10;;;;;;;;;;;;;;;45.89;10.94;100430.72;4969550;28;6932;-75
2022/08/13 12:50:39;;;;;;;;;;;;;;;45.77;11.36;100417.41;4976878;28;6942;-75
2022/08/13 12:53:06;;;;;;;;;;;;;;;45.87;11.44;100411.91;5009600;28;8090;-75
2022/08/13 12:55:33;;;;;;;;;;;;;;;46.02;11.50;100411.31;4993233;28;6993;-75
2022/08/13 12:58:23;;;;;;;;;;;;;;;46.23;11.53;100419.09;5014806;28;7012;-75
2022/08/13 13:00:53;;;;;;;;;;;;;;;46.31;11.06;100410.16;4972190;28;7155;-75
2022/08/13 13:03:19;;;;;;;;;;;;;;;46.17;10.89;100403.50;5006044;28;6796;-76
2022/08/13 13:05:49;;;;;;;;;;;;;;;45.72;11.01;100408.03;4974575;28;7561;-75
2022/08/13 13:08:28;;;;;;;;;;;;;;;45.24;11.12;100399.31;4999078;28;7278;-75
2022/08/13 13:11:03;;;;;;;;;;;;;;;44.91;11.23;100392.56;4959267;28;6971;-75
2022/08/13 13:13:30;;;;;;;;;;;;;;;44.48;11.33;100392.19;5002536;28;6864;-76
2022/08/13 13:15:57;;;;;;;;;;;;;;;44.18;11.50;100387.91;4972105;28;6987;-75